Latest Coastal Weather Observations for Frankston

IDV60701

Issued at 2:02 pm EST Wednesday 24 May 2017 (issued every 10 minutes, with the page automatically refreshed every 10 minutes)

About coastal observations | Map of coastal stations | Coastal observations for VIC | Marine services | Other Formats
Station Details ID: 086371 Name: FRANKSTON AWS Lat: -38.15 Lon: 145.12 Height: 6.0 m
Data from the previous 72 hours. | See also: Recent months at Frankston
Date/Time
EST
Temp
°C
Wind Pressure Rain since
9am
mm
Weather Cloud Vis
km
Sea
Height
m
Swell
Dir  Spd
kts
Gust
kts
hPa Trend Height
m
Period
s
Dir
24/02:00pm 14.5 W 14 17 - - - - - - - - - -
24/01:30pm 14.7 WNW 13 15 - - - - - - - - - -
24/01:00pm 14.7 WNW 15 19 - - - - - - - - - -
24/12:30pm 14.3 WNW 13 16 - - - - - - - - - -
24/12:00pm 14.1 WNW 14 17 - - - - - - - - - -
24/11:30am 14.0 W 15 18 - - - - - - - - - -
24/11:00am 13.8 WNW 15 18 - - - - - - - - - -
24/10:30am 13.9 WNW 15 19 - - - - - - - - - -
24/10:00am 13.8 WNW 15 18 - - - - - - - - - -
24/09:30am 13.8 WNW 15 18 - - - - - - - - - -
24/09:00am 13.8 WNW 15 18 - - - - - - - - - -
24/08:30am 13.7 WNW 14 18 - - - - - - - - - -
24/08:00am 13.9 WNW 15 20 - - - - - - - - - -
24/07:30am 13.8 WNW 15 19 - - - - - - - - - -
24/07:00am 13.9 WNW 15 19 - - - - - - - - - -
24/06:30am 14.1 WNW 13 16 - - - - - - - - - -
24/06:00am 14.4 NW 12 16 - - - - - - - - - -
24/05:30am 14.6 WNW 12 15 - - - - - - - - - -
24/05:00am 14.7 WNW 12 16 - - - - - - - - - -
24/04:30am 14.8 NW 11 13 - - - - - - - - - -
24/04:00am 15.1 NW 10 13 - - - - - - - - - -
24/03:30am 15.2 NW 11 13 - - - - - - - - - -
24/03:00am 15.2 NNW 10 13 - - - - - - - - - -
24/02:30am 15.2 NNW 9 11 - - - - - - - - - -
24/02:00am 15.0 N 10 12 - - - - - - - - - -
24/01:30am 15.2 N 9 13 - - - - - - - - - -
24/01:00am 15.0 N 9 12 - - - - - - - - - -
24/12:30am 15.1 N 9 11 - - - - - - - - - -
24/12:00am 15.3 N 9 11 - - - - - - - - - -
 
Date/Time
EST
Temp
°C
Wind Pressure Rain since
9am
mm
Weather Cloud Vis
km
Sea
Height
m
Swell
Dir  Spd
kts
Gust
kts
hPa Trend Height
m
Period
s
Dir
23/11:30pm 15.6 N 9 11 - - - - - - - - - -
23/11:00pm 15.4 N 10 12 - - - - - - - - - -
23/10:30pm 15.4 NNW 9 12 - - - - - - - - - -
23/10:00pm 15.4 NNW 7 9 - - - - - - - - - -
23/09:30pm 15.5 N 6 8 - - - - - - - - - -
23/09:00pm 15.4 N 4 5 - - - - - - - - - -
23/08:30pm 15.6 N 6 7 - - - - - - - - - -
23/08:00pm 15.7 N 6 7 - - - - - - - - - -
23/07:30pm 15.7 NNE 5 7 - - - - - - - - - -
23/07:00pm 16.3 N 9 11 - - - - - - - - - -
23/06:30pm 16.4 N 10 13 - - - - - - - - - -
23/06:00pm 16.8 N 10 12 - - - - - - - - - -
23/05:30pm 16.8 N 9 11 - - - - - - - - - -
23/05:00pm 16.8 N 8 11 - - - - - - - - - -
23/04:30pm 17.2 N 9 12 - - - - - - - - - -
23/04:00pm 17.2 N 8 11 - - - - - - - - - -
23/03:30pm 17.2 N 5 7 - - - - - - - - - -
23/03:00pm 17.2 N 9 10 - - - - - - - - - -
23/02:30pm 16.9 N 6 8 - - - - - - - - - -
23/02:00pm 16.5 N 5 6 - - - - - - - - - -
23/01:30pm 16.1 NNW 2 3 - - - - - - - - - -
23/01:00pm 15.8 NW 4 5 - - - - - - - - - -
23/12:30pm 15.8 W 4 5 - - - - - - - - - -
23/12:00pm 15.8 NW 3 4 - - - - - - - - - -
23/11:30am 16.2 N 7 9 - - - - - - - - - -
23/11:00am 16.4 NNE 9 13 - - - - - - - - - -
23/10:30am 16.5 N 11 14 - - - - - - - - - -
23/10:00am 16.2 N 6 10 - - - - - - - - - -
23/09:30am 15.7 N 6 7 - - - - - - - - - -
23/09:00am 15.8 N 9 11 - - - - - - - - - -
23/08:30am 15.7 NNE 9 12 - - - - - - - - - -
23/08:00am 15.9 N 11 13 - - - - - - - - - -
23/07:30am 15.6 N 9 12 - - - - - - - - - -
23/07:00am 15.8 NNW 10 13 - - - - - - - - - -
23/06:30am 16.5 NW 11 13 - - - - - - - - - -
23/06:00am 16.4 N 7 8 - - - - - - - - - -
23/05:30am 16.5 N 5 7 - - - - - - - - - -
23/05:00am 16.5 NE 3 7 - - - - - - - - - -
23/04:30am 16.8 NE 5 8 - - - - - - - - - -
23/04:00am 16.8 NE 4 7 - - - - - - - - - -
23/03:30am 16.2 ENE 3 5 - - - - - - - - - -
23/03:00am 15.5 E 2 3 - - - - - - - - - -
23/02:30am 16.0 N 2 3 - - - - - - - - - -
23/02:00am 16.2 CALM 0 0 - - - - - - - - - -
23/01:30am 16.2 ESE 1 3 - - - - - - - - - -
23/01:00am 16.4 CALM 0 0 - - - - - - - - - -
23/12:30am 16.7 WNW 2 3 - - - - - - - - - -
23/12:00am 17.0 NE 2 3 - - - - - - - - - -
 
Date/Time
EST
Temp
°C
Wind Pressure Rain since
9am
mm
Weather Cloud Vis
km
Sea
Height
m
Swell
Dir  Spd
kts
Gust
kts
hPa Trend Height
m
Period
s
Dir
22/11:30pm 16.4 CALM 0 2 - - - - - - - - - -
22/11:00pm 16.4 ENE 1 3 - - - - - - - - - -
22/10:30pm 16.8 NE 3 4 - - - - - - - - - -
22/10:00pm 16.8 NNE 2 4 - - - - - - - - - -
22/09:30pm 17.0 NE 5 8 - - - - - - - - - -
22/09:00pm 16.8 NE 5 10 - - - - - - - - - -
22/08:30pm 16.9 NE 5 8 - - - - - - - - - -
22/08:00pm 16.7 ENE 3 6 - - - - - - - - - -
22/07:30pm 17.0 NNE 3 5 - - - - - - - - - -
22/07:00pm 17.3 NNE 5 7 - - - - - - - - - -
22/06:30pm 17.7 NE 4 5 - - - - - - - - - -
22/06:00pm 18.0 NE 6 10 - - - - - - - - - -
22/05:30pm 17.9 NNE 5 8 - - - - - - - - - -
22/05:00pm 18.4 NNE 7 10 - - - - - - - - - -
22/04:30pm 18.9 NNE 11 15 - - - - - - - - - -
22/04:00pm 18.5 NNE 11 13 - - - - - - - - - -
22/03:30pm 18.2 N 10 11 - - - - - - - - - -
22/03:00pm 18.2 N 9 12 - - - - - - - - - -
22/02:30pm 18.3 N 9 12 - - - - - - - - - -
22/02:00pm 18.2 N 8 10 - - - - - - - - - -
22/01:30pm 17.9 N 6 8 - - - - - - - - - -
22/01:00pm 17.9 N 9 12 - - - - - - - - - -
22/12:30pm 17.3 N 9 11 - - - - - - - - - -
22/12:00pm 17.0 N 7 9 - - - - - - - - - -
22/11:30am 16.8 N 9 12 - - - - - - - - - -
22/11:00am 16.8 NNE 9 12 - - - - - - - - - -
22/10:30am 16.8 NNE 8 10 - - - - - - - - - -
22/10:00am 16.3 NNE 7 11 - - - - - - - - - -
22/09:30am 15.8 NNE 4 6 - - - - - - - - - -
22/09:00am 15.0 ENE 3 5 - - - - - - - - - -
22/08:30am 13.9 ESE 3 5 - - - - - - - - - -
22/08:00am 13.1 ESE 2 3 - - - - - - - - - -
22/07:30am 13.1 E 2 3 - - - - - - - - - -
22/07:00am 13.1 E 2 3 - - - - - - - - - -
22/06:30am 13.4 E 2 2 - - - - - - - - - -
22/06:00am 13.1 E 2 2 - - - - - - - - - -
22/05:30am 13.3 E 2 3 - - - - - - - - - -
22/05:00am 13.4 ENE 3 5 - - - - - - - - - -
22/04:30am 13.4 ENE 3 4 - - - - - - - - - -
22/04:00am 12.6 ESE 2 3 - - - - - - - - - -
22/03:30am 13.3 E 2 3 - - - - - - - - - -
22/03:00am 13.4 ENE 2 4 - - - - - - - - - -
22/02:30am 13.5 ENE 2 3 - - - - - - - - - -
22/02:00am 13.6 ENE 2 3 - - - - - - - - - -
22/01:30am 13.7 ENE 2 3 - - - - - - - - - -
22/01:00am 13.8 E 2 3 - - - - - - - - - -
22/12:30am 13.7 ESE 2 3 - - - - - - - - - -
22/12:00am 13.8 ESE 2 2 - - - - - - - - - -
 
Date/Time
EST
Temp
°C
Wind Pressure Rain since
9am
mm
Weather Cloud Vis
km
Sea
Height
m
Swell
Dir  Spd
kts
Gust
kts
hPa Trend Height
m
Period
s
Dir
21/11:30pm 14.5 E 2 2 - - - - - - - - - -
21/11:00pm 14.4 E 2 3 - - - - - - - - - -
21/10:30pm 14.1 ESE 2 3 - - - - - - - - - -
21/10:00pm 14.6 ESE 2 2 - - - - - - - - - -
21/09:30pm 14.7 ESE 2 3 - - - - - - - - - -
21/09:00pm 15.1 NNE 1 3 - - - - - - - - - -
21/08:30pm 15.4 NNE 4 5 - - - - - - - - - -
21/08:00pm 15.8 N 7 9 - - - - - - - - - -
21/07:30pm 16.1 N 7 9 - - - - - - - - - -
21/07:00pm 16.4 N 9 11 - - - - - - - - - -
21/06:30pm 16.3 NNE 9 11 - - - - - - - - - -
21/06:00pm 16.1 NNE 6 8 - - - - - - - - - -
21/05:30pm 16.5 NNE 9 12 - - - - - - - - - -
21/05:00pm 16.6 N 10 13 - - - - - - - - - -
21/04:30pm 16.8 N 10 13 - - - - - - - - - -
21/04:00pm 16.7 N 10 14 - - - - - - - - - -
21/03:30pm 16.7 N 10 13 - - - - - - - - - -
21/03:00pm 16.7 N 10 11 - - - - - - - - - -
21/02:30pm 16.8 N 10 12 - - - - - - - - - -

Other Formats:

Comma delimited format used in spreadsheet applications
http://www.bom.gov.au/fwo/IDV60701/IDV60701.94871.axf

JavaScript Object Notation format (JSON) in row-major order
http://www.bom.gov.au/fwo/IDV60701/IDV60701.94871.json